sensor_id;sensor_type;location;lat;lon;timestamp;P1;durP1;ratioP1;P2;durP2;ratioP2
22973;SDS011;11653;50.848;4.584;2022-12-19T00:01:26;37.00;;;15.90;;
22973;SDS011;11653;50.848;4.584;2022-12-19T00:03:57;26.27;;;13.10;;
22973;SDS011;11653;50.848;4.584;2022-12-19T00:06:24;28.60;;;13.17;;
22973;SDS011;11653;50.848;4.584;2022-12-19T00:08:51;27.33;;;13.43;;
22973;SDS011;11653;50.848;4.584;2022-12-19T00:11:19;28.43;;;13.10;;
22973;SDS011;11653;50.848;4.584;2022-12-19T00:13:46;25.23;;;13.13;;
22973;SDS011;11653;50.848;4.584;2022-12-19T00:16:16;28.80;;;13.97;;
22973;SDS011;11653;50.848;4.584;2022-12-19T00:18:44;28.03;;;14.03;;
22973;SDS011;11653;50.848;4.584;2022-12-19T00:21:11;25.80;;;13.30;;
22973;SDS011;11653;50.848;4.584;2022-12-19T00:23:39;26.80;;;12.57;;
22973;SDS011;11653;50.848;4.584;2022-12-19T00:26:05;28.50;;;12.70;;
22973;SDS011;11653;50.848;4.584;2022-12-19T00:28:34;27.60;;;12.33;;
22973;SDS011;11653;50.848;4.584;2022-12-19T00:31:00;27.33;;;13.73;;
22973;SDS011;11653;50.848;4.584;2022-12-19T00:33:26;27.70;;;13.17;;
22973;SDS011;11653;50.848;4.584;2022-12-19T00:36:05;22.70;;;11.47;;
22973;SDS011;11653;50.848;4.584;2022-12-19T00:38:34;26.20;;;12.90;;
22973;SDS011;11653;50.848;4.584;2022-12-19T00:41:06;19.90;;;10.33;;
22973;SDS011;11653;50.848;4.584;2022-12-19T00:43:35;25.67;;;11.57;;
22973;SDS011;11653;50.848;4.584;2022-12-19T00:46:02;25.03;;;12.43;;
22973;SDS011;11653;50.848;4.584;2022-12-19T00:48:31;26.57;;;12.60;;
22973;SDS011;11653;50.848;4.584;2022-12-19T00:51:01;24.17;;;12.50;;
22973;SDS011;11653;50.848;4.584;2022-12-19T00:53:31;26.37;;;13.97;;
22973;SDS011;11653;50.848;4.584;2022-12-19T00:56:05;29.07;;;12.77;;
22973;SDS011;11653;50.848;4.584;2022-12-19T00:58:32;33.83;;;13.83;;
22973;SDS011;11653;50.848;4.584;2022-12-19T01:00:58;27.57;;;13.63;;
22973;SDS011;11653;50.848;4.584;2022-12-19T01:03:33;24.87;;;12.13;;
22973;SDS011;11653;50.848;4.584;2022-12-19T01:05:59;29.53;;;13.70;;
22973;SDS011;11653;50.848;4.584;2022-12-19T01:08:25;25.17;;;13.57;;
22973;SDS011;11653;50.848;4.584;2022-12-19T01:10:50;26.90;;;13.80;;
22973;SDS011;11653;50.848;4.584;2022-12-19T01:13:18;25.10;;;13.20;;
22973;SDS011;11653;50.848;4.584;2022-12-19T01:15:44;22.77;;;11.53;;
22973;SDS011;11653;50.848;4.584;2022-12-19T01:18:10;25.40;;;12.67;;
22973;SDS011;11653;50.848;4.584;2022-12-19T01:20:37;26.93;;;13.20;;
22973;SDS011;11653;50.848;4.584;2022-12-19T01:23:04;29.93;;;14.50;;
22973;SDS011;11653;50.848;4.584;2022-12-19T01:25:31;23.80;;;12.63;;
22973;SDS011;11653;50.848;4.584;2022-12-19T01:28:02;27.70;;;13.53;;
22973;SDS011;11653;50.848;4.584;2022-12-19T01:30:29;29.60;;;13.53;;
22973;SDS011;11653;50.848;4.584;2022-12-19T01:32:55;25.10;;;11.83;;
22973;SDS011;11653;50.848;4.584;2022-12-19T01:35:21;27.20;;;14.03;;
22973;SDS011;11653;50.848;4.584;2022-12-19T01:37:51;24.63;;;12.40;;
22973;SDS011;11653;50.848;4.584;2022-12-19T01:40:19;27.90;;;13.40;;
22973;SDS011;11653;50.848;4.584;2022-12-19T01:42:46;24.37;;;12.03;;
22973;SDS011;11653;50.848;4.584;2022-12-19T01:50:19;25.33;;;11.97;;
22973;SDS011;11653;50.848;4.584;2022-12-19T01:52:50;23.77;;;12.03;;
22973;SDS011;11653;50.848;4.584;2022-12-19T01:55:17;21.93;;;11.23;;
22973;SDS011;11653;50.848;4.584;2022-12-19T01:57:45;19.80;;;11.40;;
22973;SDS011;11653;50.848;4.584;2022-12-19T02:00:11;19.43;;;11.80;;
22973;SDS011;11653;50.848;4.584;2022-12-19T02:02:40;19.77;;;10.77;;
22973;SDS011;11653;50.848;4.584;2022-12-19T02:05:10;20.00;;;11.63;;
22973;SDS011;11653;50.848;4.584;2022-12-19T02:07:35;22.77;;;12.07;;
22973;SDS011;11653;50.848;4.584;2022-12-19T02:10:02;20.00;;;11.90;;
22973;SDS011;11653;50.848;4.584;2022-12-19T02:12:29;20.87;;;11.57;;
22973;SDS011;11653;50.848;4.584;2022-12-19T02:14:57;23.00;;;10.77;;
22973;SDS011;11653;50.848;4.584;2022-12-19T02:27:46;26.43;;;13.00;;
22973;SDS011;11653;50.848;4.584;2022-12-19T02:38:32;19.53;;;10.80;;
22973;SDS011;11653;50.848;4.584;2022-12-19T02:41:08;24.17;;;11.77;;
22973;SDS011;11653;50.848;4.584;2022-12-19T02:43:43;20.97;;;11.10;;
22973;SDS011;11653;50.848;4.584;2022-12-19T02:46:12;22.20;;;11.60;;
22973;SDS011;11653;50.848;4.584;2022-12-19T02:48:40;19.50;;;11.87;;
22973;SDS011;11653;50.848;4.584;2022-12-19T02:51:07;22.87;;;12.20;;
22973;SDS011;11653;50.848;4.584;2022-12-19T02:53:32;20.93;;;11.17;;
22973;SDS011;11653;50.848;4.584;2022-12-19T03:07:24;19.23;;;11.43;;
22973;SDS011;11653;50.848;4.584;2022-12-19T03:12:53;27.10;;;12.97;;
22973;SDS011;11653;50.848;4.584;2022-12-19T03:15:28;17.80;;;10.93;;
22973;SDS011;11653;50.848;4.584;2022-12-19T03:17:59;21.80;;;13.40;;
22973;SDS011;11653;50.848;4.584;2022-12-19T03:23:14;21.57;;;11.80;;
22973;SDS011;11653;50.848;4.584;2022-12-19T03:25:42;20.60;;;11.43;;
22973;SDS011;11653;50.848;4.584;2022-12-19T03:28:10;23.90;;;11.97;;
22973;SDS011;11653;50.848;4.584;2022-12-19T03:30:40;22.40;;;11.40;;
22973;SDS011;11653;50.848;4.584;2022-12-19T03:33:09;19.97;;;11.87;;
22973;SDS011;11653;50.848;4.584;2022-12-19T03:35:37;20.37;;;13.23;;
22973;SDS011;11653;50.848;4.584;2022-12-19T03:38:05;20.57;;;12.93;;
22973;SDS011;11653;50.848;4.584;2022-12-19T03:40:31;17.57;;;10.40;;
22973;SDS011;11653;50.848;4.584;2022-12-19T03:43:02;19.77;;;10.80;;
22973;SDS011;11653;50.848;4.584;2022-12-19T03:48:26;20.23;;;11.70;;
22973;SDS011;11653;50.848;4.584;2022-12-19T03:54:23;20.90;;;11.63;;
22973;SDS011;11653;50.848;4.584;2022-12-19T03:59:38;24.07;;;10.50;;
22973;SDS011;11653;50.848;4.584;2022-12-19T04:02:08;20.23;;;10.77;;
22973;SDS011;11653;50.848;4.584;2022-12-19T04:04:39;20.57;;;11.43;;
22973;SDS011;11653;50.848;4.584;2022-12-19T04:07:28;20.93;;;11.70;;
22973;SDS011;11653;50.848;4.584;2022-12-19T04:09:54;18.27;;;10.73;;
22973;SDS011;11653;50.848;4.584;2022-12-19T04:12:24;16.93;;;10.43;;
22973;SDS011;11653;50.848;4.584;2022-12-19T04:14:57;17.43;;;10.30;;
22973;SDS011;11653;50.848;4.584;2022-12-19T04:20:05;17.33;;;10.67;;
22973;SDS011;11653;50.848;4.584;2022-12-19T04:22:36;16.10;;;10.20;;
22973;SDS011;11653;50.848;4.584;2022-12-19T04:25:10;16.43;;;10.20;;
22973;SDS011;11653;50.848;4.584;2022-12-19T04:27:40;19.67;;;10.53;;
22973;SDS011;11653;50.848;4.584;2022-12-19T04:30:14;16.50;;;10.70;;
22973;SDS011;11653;50.848;4.584;2022-12-19T04:32:42;15.03;;;9.80;;
22973;SDS011;11653;50.848;4.584;2022-12-19T04:35:08;15.83;;;10.63;;
22973;SDS011;11653;50.848;4.584;2022-12-19T04:37:34;15.67;;;10.13;;
22973;SDS011;11653;50.848;4.584;2022-12-19T04:40:00;15.77;;;9.73;;
22973;SDS011;11653;50.848;4.584;2022-12-19T04:42:26;16.37;;;10.23;;
22973;SDS011;11653;50.848;4.584;2022-12-19T04:44:52;19.97;;;9.97;;
22973;SDS011;11653;50.848;4.584;2022-12-19T04:47:18;16.77;;;10.20;;
22973;SDS011;11653;50.848;4.584;2022-12-19T04:49:43;16.73;;;9.67;;
22973;SDS011;11653;50.848;4.584;2022-12-19T04:52:09;14.93;;;9.70;;
22973;SDS011;11653;50.848;4.584;2022-12-19T04:54:34;14.93;;;9.00;;
22973;SDS011;11653;50.848;4.584;2022-12-19T04:57:00;15.83;;;10.00;;
22973;SDS011;11653;50.848;4.584;2022-12-19T04:59:26;13.80;;;9.50;;
22973;SDS011;11653;50.848;4.584;2022-12-19T05:01:51;17.50;;;9.10;;
22973;SDS011;11653;50.848;4.584;2022-12-19T05:04:17;16.50;;;9.77;;
22973;SDS011;11653;50.848;4.584;2022-12-19T05:06:43;14.60;;;8.90;;
22973;SDS011;11653;50.848;4.584;2022-12-19T05:09:09;16.63;;;9.50;;
22973;SDS011;11653;50.848;4.584;2022-12-19T05:11:35;13.63;;;8.87;;
22973;SDS011;11653;50.848;4.584;2022-12-19T05:14:01;18.73;;;9.07;;
22973;SDS011;11653;50.848;4.584;2022-12-19T05:16:26;15.37;;;9.00;;
22973;SDS011;11653;50.848;4.584;2022-12-19T05:18:52;13.47;;;8.00;;
22973;SDS011;11653;50.848;4.584;2022-12-19T05:21:18;14.87;;;9.23;;
22973;SDS011;11653;50.848;4.584;2022-12-19T05:23:45;13.23;;;8.27;;
22973;SDS011;11653;50.848;4.584;2022-12-19T05:26:11;13.07;;;8.67;;
22973;SDS011;11653;50.848;4.584;2022-12-19T05:28:37;13.13;;;8.30;;
22973;SDS011;11653;50.848;4.584;2022-12-19T05:31:08;13.53;;;7.73;;
22973;SDS011;11653;50.848;4.584;2022-12-19T05:33:38;14.40;;;8.80;;
22973;SDS011;11653;50.848;4.584;2022-12-19T05:36:05;13.60;;;7.97;;
22973;SDS011;11653;50.848;4.584;2022-12-19T05:38:32;14.77;;;8.57;;
22973;SDS011;11653;50.848;4.584;2022-12-19T05:40:58;13.70;;;8.47;;
22973;SDS011;11653;50.848;4.584;2022-12-19T05:43:24;14.97;;;8.80;;
22973;SDS011;11653;50.848;4.584;2022-12-19T05:45:50;16.47;;;8.93;;
22973;SDS011;11653;50.848;4.584;2022-12-19T05:48:16;15.13;;;8.70;;
22973;SDS011;11653;50.848;4.584;2022-12-19T05:50:45;12.23;;;8.13;;
22973;SDS011;11653;50.848;4.584;2022-12-19T05:53:13;13.97;;;7.40;;
22973;SDS011;11653;50.848;4.584;2022-12-19T05:55:38;13.37;;;8.27;;
22973;SDS011;11653;50.848;4.584;2022-12-19T05:58:04;14.13;;;8.63;;
22973;SDS011;11653;50.848;4.584;2022-12-19T06:00:30;13.90;;;7.73;;
22973;SDS011;11653;50.848;4.584;2022-12-19T06:02:55;14.20;;;8.43;;
22973;SDS011;11653;50.848;4.584;2022-12-19T06:05:21;12.07;;;7.70;;
22973;SDS011;11653;50.848;4.584;2022-12-19T06:07:47;14.93;;;8.43;;
22973;SDS011;11653;50.848;4.584;2022-12-19T06:10:12;14.17;;;8.77;;
22973;SDS011;11653;50.848;4.584;2022-12-19T06:12:38;13.57;;;7.90;;
22973;SDS011;11653;50.848;4.584;2022-12-19T06:15:04;11.73;;;8.37;;
22973;SDS011;11653;50.848;4.584;2022-12-19T06:17:30;18.17;;;8.83;;
22973;SDS011;11653;50.848;4.584;2022-12-19T06:19:56;14.03;;;8.03;;
22973;SDS011;11653;50.848;4.584;2022-12-19T06:22:21;11.27;;;7.63;;
22973;SDS011;11653;50.848;4.584;2022-12-19T06:24:48;13.10;;;8.40;;
22973;SDS011;11653;50.848;4.584;2022-12-19T06:27:13;11.30;;;8.23;;
22973;SDS011;11653;50.848;4.584;2022-12-19T06:29:39;12.23;;;7.40;;
22973;SDS011;11653;50.848;4.584;2022-12-19T06:32:05;12.03;;;7.77;;
22973;SDS011;11653;50.848;4.584;2022-12-19T06:34:30;14.10;;;7.97;;
22973;SDS011;11653;50.848;4.584;2022-12-19T06:36:56;13.70;;;7.60;;
22973;SDS011;11653;50.848;4.584;2022-12-19T06:39:21;11.47;;;7.30;;
22973;SDS011;11653;50.848;4.584;2022-12-19T06:41:47;15.27;;;7.77;;
22973;SDS011;11653;50.848;4.584;2022-12-19T06:44:31;10.10;;;6.63;;
22973;SDS011;11653;50.848;4.584;2022-12-19T06:46:57;12.97;;;7.90;;
22973;SDS011;11653;50.848;4.584;2022-12-19T06:49:23;14.10;;;8.30;;
22973;SDS011;11653;50.848;4.584;2022-12-19T06:51:48;9.70;;;7.20;;
22973;SDS011;11653;50.848;4.584;2022-12-19T06:54:14;12.63;;;7.53;;
22973;SDS011;11653;50.848;4.584;2022-12-19T06:56:40;12.53;;;7.43;;
22973;SDS011;11653;50.848;4.584;2022-12-19T06:59:08;11.77;;;7.83;;
22973;SDS011;11653;50.848;4.584;2022-12-19T07:04:31;8.70;;;6.40;;
22973;SDS011;11653;50.848;4.584;2022-12-19T07:07:01;9.40;;;6.63;;
22973;SDS011;11653;50.848;4.584;2022-12-19T07:09:27;11.27;;;6.53;;
22973;SDS011;11653;50.848;4.584;2022-12-19T07:11:54;9.33;;;6.50;;
22973;SDS011;11653;50.848;4.584;2022-12-19T07:14:20;9.60;;;5.97;;
22973;SDS011;11653;50.848;4.584;2022-12-19T07:16:46;11.30;;;6.77;;
22973;SDS011;11653;50.848;4.584;2022-12-19T07:19:13;12.17;;;6.60;;
22973;SDS011;11653;50.848;4.584;2022-12-19T07:21:39;12.03;;;6.63;;
22973;SDS011;11653;50.848;4.584;2022-12-19T07:24:05;7.70;;;5.97;;
22973;SDS011;11653;50.848;4.584;2022-12-19T07:26:31;10.97;;;6.00;;
22973;SDS011;11653;50.848;4.584;2022-12-19T07:28:57;7.90;;;5.70;;
22973;SDS011;11653;50.848;4.584;2022-12-19T07:31:24;8.07;;;5.40;;
22973;SDS011;11653;50.848;4.584;2022-12-19T07:33:49;10.60;;;6.03;;
22973;SDS011;11653;50.848;4.584;2022-12-19T07:36:15;10.37;;;5.27;;
22973;SDS011;11653;50.848;4.584;2022-12-19T07:38:41;9.67;;;6.13;;
22973;SDS011;11653;50.848;4.584;2022-12-19T07:41:06;8.00;;;5.80;;
22973;SDS011;11653;50.848;4.584;2022-12-19T07:43:32;10.17;;;6.67;;
22973;SDS011;11653;50.848;4.584;2022-12-19T07:45:58;8.70;;;5.77;;
22973;SDS011;11653;50.848;4.584;2022-12-19T07:48:23;9.60;;;5.37;;
22973;SDS011;11653;50.848;4.584;2022-12-19T07:50:49;9.43;;;6.00;;
22973;SDS011;11653;50.848;4.584;2022-12-19T07:53:14;9.20;;;5.80;;
22973;SDS011;11653;50.848;4.584;2022-12-19T07:55:40;9.07;;;6.37;;
22973;SDS011;11653;50.848;4.584;2022-12-19T07:58:06;10.30;;;6.10;;
22973;SDS011;11653;50.848;4.584;2022-12-19T08:00:34;9.43;;;5.60;;
22973;SDS011;11653;50.848;4.584;2022-12-19T08:03:00;7.77;;;5.13;;
22973;SDS011;11653;50.848;4.584;2022-12-19T08:05:26;8.83;;;5.70;;
22973;SDS011;11653;50.848;4.584;2022-12-19T08:07:51;9.87;;;5.57;;
22973;SDS011;11653;50.848;4.584;2022-12-19T08:10:17;10.80;;;5.57;;
22973;SDS011;11653;50.848;4.584;2022-12-19T08:12:43;9.93;;;5.60;;
22973;SDS011;11653;50.848;4.584;2022-12-19T08:15:10;10.53;;;5.70;;
22973;SDS011;11653;50.848;4.584;2022-12-19T08:17:36;11.63;;;5.83;;
22973;SDS011;11653;50.848;4.584;2022-12-19T08:20:03;8.13;;;5.57;;
22973;SDS011;11653;50.848;4.584;2022-12-19T08:22:30;8.33;;;5.63;;
22973;SDS011;11653;50.848;4.584;2022-12-19T08:24:56;7.73;;;5.27;;
22973;SDS011;11653;50.848;4.584;2022-12-19T08:27:22;8.80;;;5.23;;
22973;SDS011;11653;50.848;4.584;2022-12-19T08:29:48;9.83;;;5.70;;
22973;SDS011;11653;50.848;4.584;2022-12-19T08:32:14;9.93;;;5.50;;
22973;SDS011;11653;50.848;4.584;2022-12-19T08:34:40;9.20;;;6.00;;
22973;SDS011;11653;50.848;4.584;2022-12-19T08:37:06;5.47;;;4.47;;
22973;SDS011;11653;50.848;4.584;2022-12-19T08:39:33;7.40;;;4.60;;
22973;SDS011;11653;50.848;4.584;2022-12-19T08:41:58;8.37;;;4.70;;
22973;SDS011;11653;50.848;4.584;2022-12-19T08:44:24;10.20;;;5.13;;
22973;SDS011;11653;50.848;4.584;2022-12-19T08:46:50;8.17;;;5.10;;
22973;SDS011;11653;50.848;4.584;2022-12-19T08:49:16;10.23;;;5.10;;
22973;SDS011;11653;50.848;4.584;2022-12-19T08:51:43;7.10;;;4.90;;
22973;SDS011;11653;50.848;4.584;2022-12-19T08:54:09;6.60;;;5.03;;
22973;SDS011;11653;50.848;4.584;2022-12-19T08:56:36;6.77;;;5.00;;
22973;SDS011;11653;50.848;4.584;2022-12-19T08:59:02;8.33;;;4.97;;
22973;SDS011;11653;50.848;4.584;2022-12-19T09:01:28;7.87;;;4.87;;
22973;SDS011;11653;50.848;4.584;2022-12-19T09:03:56;7.30;;;4.67;;
22973;SDS011;11653;50.848;4.584;2022-12-19T09:06:23;6.63;;;4.60;;
22973;SDS011;11653;50.848;4.584;2022-12-19T09:08:49;9.63;;;5.43;;
22973;SDS011;11653;50.848;4.584;2022-12-19T09:11:15;7.63;;;5.00;;
22973;SDS011;11653;50.848;4.584;2022-12-19T09:13:43;8.97;;;5.00;;
22973;SDS011;11653;50.848;4.584;2022-12-19T09:16:19;7.50;;;4.70;;
22973;SDS011;11653;50.848;4.584;2022-12-19T09:18:47;9.80;;;5.23;;
22973;SDS011;11653;50.848;4.584;2022-12-19T09:21:14;7.33;;;4.67;;
22973;SDS011;11653;50.848;4.584;2022-12-19T09:23:41;6.10;;;4.70;;
22973;SDS011;11653;50.848;4.584;2022-12-19T09:26:12;7.53;;;4.60;;
22973;SDS011;11653;50.848;4.584;2022-12-19T09:28:38;8.70;;;5.00;;
22973;SDS011;11653;50.848;4.584;2022-12-19T09:31:06;7.30;;;4.77;;
22973;SDS011;11653;50.848;4.584;2022-12-19T09:33:36;8.77;;;4.80;;
22973;SDS011;11653;50.848;4.584;2022-12-19T09:36:02;7.40;;;4.93;;
22973;SDS011;11653;50.848;4.584;2022-12-19T09:38:28;5.57;;;4.47;;
22973;SDS011;11653;50.848;4.584;2022-12-19T09:46:47;5.83;;;4.50;;
22973;SDS011;11653;50.848;4.584;2022-12-19T09:49:16;7.87;;;4.53;;
22973;SDS011;11653;50.848;4.584;2022-12-19T09:51:51;6.97;;;4.60;;
22973;SDS011;11653;50.848;4.584;2022-12-19T09:57:09;5.90;;;4.20;;
22973;SDS011;11653;50.848;4.584;2022-12-19T09:59:50;8.93;;;4.57;;
22973;SDS011;11653;50.848;4.584;2022-12-19T10:04:50;8.07;;;4.60;;
22973;SDS011;11653;50.848;4.584;2022-12-19T10:07:21;7.77;;;4.63;;
22973;SDS011;11653;50.848;4.584;2022-12-19T10:09:47;8.93;;;4.53;;
22973;SDS011;11653;50.848;4.584;2022-12-19T10:15:04;7.03;;;4.00;;
22973;SDS011;11653;50.848;4.584;2022-12-19T10:20:41;8.77;;;4.57;;
22973;SDS011;11653;50.848;4.584;2022-12-19T10:26:04;9.00;;;4.00;;
22973;SDS011;11653;50.848;4.584;2022-12-19T10:28:58;7.87;;;4.67;;
22973;SDS011;11653;50.848;4.584;2022-12-19T10:31:57;7.53;;;3.90;;
22973;SDS011;11653;50.848;4.584;2022-12-19T10:34:47;5.67;;;4.03;;
22973;SDS011;11653;50.848;4.584;2022-12-19T10:42:47;7.93;;;4.10;;
22973;SDS011;11653;50.848;4.584;2022-12-19T10:45:19;4.60;;;3.87;;
22973;SDS011;11653;50.848;4.584;2022-12-19T10:47:46;5.03;;;3.73;;
22973;SDS011;11653;50.848;4.584;2022-12-19T10:50:16;5.73;;;3.80;;
22973;SDS011;11653;50.848;4.584;2022-12-19T10:52:48;5.27;;;3.60;;
22973;SDS011;11653;50.848;4.584;2022-12-19T10:58:36;3.57;;;3.00;;
22973;SDS011;11653;50.848;4.584;2022-12-19T11:03:28;3.87;;;3.23;;
22973;SDS011;11653;50.848;4.584;2022-12-19T11:05:55;5.77;;;4.00;;
22973;SDS011;11653;50.848;4.584;2022-12-19T11:08:40;10.77;;;5.13;;
22973;SDS011;11653;50.848;4.584;2022-12-19T11:16:10;5.53;;;3.27;;
22973;SDS011;11653;50.848;4.584;2022-12-19T11:26:41;5.67;;;3.30;;
22973;SDS011;11653;50.848;4.584;2022-12-19T11:35:02;6.27;;;2.80;;
22973;SDS011;11653;50.848;4.584;2022-12-19T11:37:38;5.37;;;3.07;;
22973;SDS011;11653;50.848;4.584;2022-12-19T11:42:48;4.80;;;3.00;;
22973;SDS011;11653;50.848;4.584;2022-12-19T11:54:06;5.93;;;3.00;;
22973;SDS011;11653;50.848;4.584;2022-12-19T11:56:42;4.43;;;3.00;;
22973;SDS011;11653;50.848;4.584;2022-12-19T11:59:14;5.57;;;2.60;;
22973;SDS011;11653;50.848;4.584;2022-12-19T12:07:14;4.77;;;3.00;;
22973;SDS011;11653;50.848;4.584;2022-12-19T12:12:24;4.40;;;2.80;;
22973;SDS011;11653;50.848;4.584;2022-12-19T12:18:23;2.73;;;2.40;;
22973;SDS011;11653;50.848;4.584;2022-12-19T12:21:18;4.13;;;2.83;;
22973;SDS011;11653;50.848;4.584;2022-12-19T12:23:57;5.60;;;2.60;;
22973;SDS011;11653;50.848;4.584;2022-12-19T12:26:28;6.33;;;3.03;;
22973;SDS011;11653;50.848;4.584;2022-12-19T12:47:59;4.90;;;2.50;;
22973;SDS011;11653;50.848;4.584;2022-12-19T12:50:24;5.30;;;2.57;;
22973;SDS011;11653;50.848;4.584;2022-12-19T12:52:56;5.80;;;2.80;;
22973;SDS011;11653;50.848;4.584;2022-12-19T12:55:30;3.40;;;2.60;;
22973;SDS011;11653;50.848;4.584;2022-12-19T12:57:59;6.00;;;2.50;;
22973;SDS011;11653;50.848;4.584;2022-12-19T13:00:31;3.90;;;2.40;;
22973;SDS011;11653;50.848;4.584;2022-12-19T13:03:12;4.53;;;2.80;;
22973;SDS011;11653;50.848;4.584;2022-12-19T13:05:51;3.93;;;2.50;;
22973;SDS011;11653;50.848;4.584;2022-12-19T13:08:52;5.90;;;2.67;;
22973;SDS011;11653;50.848;4.584;2022-12-19T13:11:13;6.47;;;2.50;;
22973;SDS011;11653;50.848;4.584;2022-12-19T13:16:58;3.97;;;2.47;;
22973;SDS011;11653;50.848;4.584;2022-12-19T13:19:26;2.77;;;2.40;;
22973;SDS011;11653;50.848;4.584;2022-12-19T13:24:50;3.53;;;2.57;;
22973;SDS011;11653;50.848;4.584;2022-12-19T13:32:31;3.37;;;2.90;;
22973;SDS011;11653;50.848;4.584;2022-12-19T13:40:29;5.27;;;2.50;;
22973;SDS011;11653;50.848;4.584;2022-12-19T13:45:53;4.77;;;2.57;;
22973;SDS011;11653;50.848;4.584;2022-12-19T13:48:38;5.80;;;2.60;;
22973;SDS011;11653;50.848;4.584;2022-12-19T13:51:10;3.83;;;2.33;;
22973;SDS011;11653;50.848;4.584;2022-12-19T13:53:38;3.70;;;2.37;;
22973;SDS011;11653;50.848;4.584;2022-12-19T13:56:05;5.30;;;2.80;;
22973;SDS011;11653;50.848;4.584;2022-12-19T13:58:56;4.77;;;2.67;;
22973;SDS011;11653;50.848;4.584;2022-12-19T14:01:33;2.77;;;2.50;;
22973;SDS011;11653;50.848;4.584;2022-12-19T14:04:43;4.60;;;2.53;;
22973;SDS011;11653;50.848;4.584;2022-12-19T14:06:54;4.23;;;2.47;;
22973;SDS011;11653;50.848;4.584;2022-12-19T14:11:55;3.17;;;2.57;;
22973;SDS011;11653;50.848;4.584;2022-12-19T14:14:24;2.77;;;2.50;;
22973;SDS011;11653;50.848;4.584;2022-12-19T14:17:12;6.03;;;2.97;;
22973;SDS011;11653;50.848;4.584;2022-12-19T14:19:45;4.67;;;2.90;;
22973;SDS011;11653;50.848;4.584;2022-12-19T14:24:52;6.03;;;2.90;;
22973;SDS011;11653;50.848;4.584;2022-12-19T14:27:43;3.77;;;2.70;;
22973;SDS011;11653;50.848;4.584;2022-12-19T14:30:28;6.47;;;2.83;;
22973;SDS011;11653;50.848;4.584;2022-12-19T14:32:57;9.23;;;2.70;;
22973;SDS011;11653;50.848;4.584;2022-12-19T14:35:47;7.37;;;2.73;;
22973;SDS011;11653;50.848;4.584;2022-12-19T14:38:16;3.03;;;2.37;;
22973;SDS011;11653;50.848;4.584;2022-12-19T14:40:45;5.40;;;2.77;;
22973;SDS011;11653;50.848;4.584;2022-12-19T14:46:35;4.63;;;2.90;;
22973;SDS011;11653;50.848;4.584;2022-12-19T14:51:38;6.97;;;3.10;;
22973;SDS011;11653;50.848;4.584;2022-12-19T14:59:32;5.20;;;3.00;;
22973;SDS011;11653;50.848;4.584;2022-12-19T15:04:35;5.10;;;2.90;;
22973;SDS011;11653;50.848;4.584;2022-12-19T15:07:05;5.63;;;2.70;;
22973;SDS011;11653;50.848;4.584;2022-12-19T15:09:35;5.07;;;4.27;;
22973;SDS011;11653;50.848;4.584;2022-12-19T15:12:13;3.50;;;2.60;;
22973;SDS011;11653;50.848;4.584;2022-12-19T15:17:58;10.27;;;3.00;;
22973;SDS011;11653;50.848;4.584;2022-12-19T15:20:23;4.67;;;2.93;;
22973;SDS011;11653;50.848;4.584;2022-12-19T15:22:49;20.77;;;11.63;;
22973;SDS011;11653;50.848;4.584;2022-12-19T15:25:15;9.63;;;5.17;;
22973;SDS011;11653;50.848;4.584;2022-12-19T15:27:42;7.73;;;3.00;;
22973;SDS011;11653;50.848;4.584;2022-12-19T15:30:16;5.63;;;3.53;;
22973;SDS011;11653;50.848;4.584;2022-12-19T15:32:44;7.47;;;2.87;;
22973;SDS011;11653;50.848;4.584;2022-12-19T15:35:15;5.77;;;3.60;;
22973;SDS011;11653;50.848;4.584;2022-12-19T15:37:42;4.77;;;2.77;;
22973;SDS011;11653;50.848;4.584;2022-12-19T15:40:13;3.70;;;3.20;;
22973;SDS011;11653;50.848;4.584;2022-12-19T15:42:46;5.90;;;2.77;;
22973;SDS011;11653;50.848;4.584;2022-12-19T15:45:17;5.03;;;3.27;;
22973;SDS011;11653;50.848;4.584;2022-12-19T15:47:44;5.43;;;3.20;;
22973;SDS011;11653;50.848;4.584;2022-12-19T15:50:19;3.87;;;3.00;;
22973;SDS011;11653;50.848;4.584;2022-12-19T15:52:50;4.40;;;3.50;;
22973;SDS011;11653;50.848;4.584;2022-12-19T15:55:19;7.70;;;5.33;;
22973;SDS011;11653;50.848;4.584;2022-12-19T15:57:51;8.77;;;4.83;;
22973;SDS011;11653;50.848;4.584;2022-12-19T16:00:23;4.77;;;3.90;;
22973;SDS011;11653;50.848;4.584;2022-12-19T16:02:52;6.90;;;5.23;;
22973;SDS011;11653;50.848;4.584;2022-12-19T16:05:20;8.90;;;4.50;;
22973;SDS011;11653;50.848;4.584;2022-12-19T16:07:46;7.10;;;3.83;;
22973;SDS011;11653;50.848;4.584;2022-12-19T16:10:13;5.23;;;3.53;;
22973;SDS011;11653;50.848;4.584;2022-12-19T16:12:43;7.50;;;3.67;;
22973;SDS011;11653;50.848;4.584;2022-12-19T16:15:24;5.37;;;3.50;;
22973;SDS011;11653;50.848;4.584;2022-12-19T16:17:56;6.37;;;3.80;;
22973;SDS011;11653;50.848;4.584;2022-12-19T16:20:24;9.27;;;4.03;;
22973;SDS011;11653;50.848;4.584;2022-12-19T16:22:51;7.00;;;4.17;;
22973;SDS011;11653;50.848;4.584;2022-12-19T16:25:18;6.10;;;4.23;;
22973;SDS011;11653;50.848;4.584;2022-12-19T16:27:45;7.03;;;3.87;;
22973;SDS011;11653;50.848;4.584;2022-12-19T16:30:24;5.47;;;3.30;;
22973;SDS011;11653;50.848;4.584;2022-12-19T16:32:53;4.80;;;3.03;;
22973;SDS011;11653;50.848;4.584;2022-12-19T16:35:21;7.47;;;3.37;;
22973;SDS011;11653;50.848;4.584;2022-12-19T16:37:48;4.63;;;3.20;;
22973;SDS011;11653;50.848;4.584;2022-12-19T16:40:21;5.77;;;3.77;;
22973;SDS011;11653;50.848;4.584;2022-12-19T16:42:54;5.93;;;3.70;;
22973;SDS011;11653;50.848;4.584;2022-12-19T16:45:28;8.70;;;4.87;;
22973;SDS011;11653;50.848;4.584;2022-12-19T16:47:57;6.60;;;3.57;;
22973;SDS011;11653;50.848;4.584;2022-12-19T16:50:27;8.93;;;4.20;;
22973;SDS011;11653;50.848;4.584;2022-12-19T16:52:55;5.40;;;3.67;;
22973;SDS011;11653;50.848;4.584;2022-12-19T16:55:21;5.80;;;3.70;;
22973;SDS011;11653;50.848;4.584;2022-12-19T16:57:50;5.77;;;3.43;;
22973;SDS011;11653;50.848;4.584;2022-12-19T17:00:19;5.47;;;3.93;;
22973;SDS011;11653;50.848;4.584;2022-12-19T17:02:47;10.20;;;4.10;;
22973;SDS011;11653;50.848;4.584;2022-12-19T17:07:46;5.10;;;3.70;;
22973;SDS011;11653;50.848;4.584;2022-12-19T17:10:12;9.67;;;3.60;;
22973;SDS011;11653;50.848;4.584;2022-12-19T17:12:38;6.43;;;3.83;;
22973;SDS011;11653;50.848;4.584;2022-12-19T17:15:07;7.23;;;4.30;;
22973;SDS011;11653;50.848;4.584;2022-12-19T17:17:45;6.77;;;3.90;;
22973;SDS011;11653;50.848;4.584;2022-12-19T17:20:17;7.53;;;4.90;;
22973;SDS011;11653;50.848;4.584;2022-12-19T17:22:45;6.87;;;4.03;;
22973;SDS011;11653;50.848;4.584;2022-12-19T17:25:20;5.77;;;4.07;;
22973;SDS011;11653;50.848;4.584;2022-12-19T17:27:50;6.30;;;3.47;;
22973;SDS011;11653;50.848;4.584;2022-12-19T17:30:17;6.83;;;4.00;;
22973;SDS011;11653;50.848;4.584;2022-12-19T17:32:43;8.23;;;3.87;;
22973;SDS011;11653;50.848;4.584;2022-12-19T17:35:16;5.70;;;3.70;;
22973;SDS011;11653;50.848;4.584;2022-12-19T17:37:44;11.40;;;5.00;;
22973;SDS011;11653;50.848;4.584;2022-12-19T17:40:19;5.20;;;3.50;;
22973;SDS011;11653;50.848;4.584;2022-12-19T17:42:47;5.60;;;3.60;;
22973;SDS011;11653;50.848;4.584;2022-12-19T17:45:13;4.47;;;3.10;;
22973;SDS011;11653;50.848;4.584;2022-12-19T17:47:40;6.93;;;3.70;;
22973;SDS011;11653;50.848;4.584;2022-12-19T17:50:16;7.67;;;4.97;;
22973;SDS011;11653;50.848;4.584;2022-12-19T17:52:43;7.63;;;5.10;;
22973;SDS011;11653;50.848;4.584;2022-12-19T17:57:48;6.90;;;3.77;;
22973;SDS011;11653;50.848;4.584;2022-12-19T18:00:15;5.33;;;3.70;;
22973;SDS011;11653;50.848;4.584;2022-12-19T18:02:42;6.93;;;3.40;;
22973;SDS011;11653;50.848;4.584;2022-12-19T18:05:16;6.00;;;3.70;;